Terminal Aerodrome Forecast
Issued by NWS Wilmington, OH

Current Version | Previous Version | Graphics & Text | Print | Product List | Glossary On
Versions: 1 2 3 4 5 6 7 8 9 10 11 12 13 14 15 16 17 18 19 20 21 22 23 24 25
000
FTUS41 KILN 191608 AAE
TAFILN
TAF AMD
KILN 191608Z 1916/2012 25006KT 3SM BR OVC007
     FM191800 25006KT P6SM SCT025 BKN035
     FM192100 25006KT P6SM FEW025 SCT100
     FM200400 VRB04KT P6SM FEW070 SCT120=

USA.gov is the U.S. government's official web portal to all federal, state and local government web resources and services.